Time;durP1;ratioP1;P1;durP2;ratioP2;P2;SDS_P1;SDS_P2;PMS_P1;PMS_P2;Temp;Humidity;BMP_temperature;BMP_pressure;BME280_temperature;BME280_humidity;BME280_pressure;Samples;Min_cycle;Max_cycle;Signal;HPM_P1;HPM_P2
2022/02/14 00:02:44;;;;;;;8.48;5.07;;;1.40;99.90;;;;;;20777935;28;20030;-77
2022/02/14 00:12:45;;;;;;;6.15;3.22;;;1.50;99.90;;;;;;20802199;28;20041;-76
2022/02/14 00:22:46;;;;;;;7.57;4.15;;;1.40;99.90;;;;;;20787789;28;20029;-76
2022/02/14 00:32:48;;;;;;;9.80;5.13;;;1.40;99.90;;;;;;20802963;28;20487;-76
2022/02/14 00:42:49;;;;;;;15.63;6.80;;;1.00;99.90;;;;;;20789050;28;20058;-76
2022/02/14 00:52:50;;;;;;;12.45;6.95;;;0.70;99.90;;;;;;20783184;28;20124;-76
2022/02/14 01:02:51;;;;;;;15.95;7.13;;;0.60;99.90;;;;;;20794510;28;20104;-76
2022/02/14 01:12:52;;;;;;;17.45;7.22;;;0.50;99.90;;;;;;20779972;28;20036;-76
2022/02/14 01:22:53;;;;;;;16.02;7.50;;;0.70;99.90;;;;;;20789269;28;20031;-76
2022/02/14 01:32:53;;;;;;;12.18;6.80;;;0.50;99.90;;;;;;20787490;28;20044;-76
2022/02/14 01:42:54;;;;;;;14.10;6.43;;;0.40;99.90;;;;;;20766885;28;20021;-75
2022/02/14 01:52:55;;;;;;;13.80;6.45;;;0.60;99.90;;;;;;20896138;22;20257;-78
2022/02/14 02:02:57;;;;;;;11.55;5.70;;;0.70;99.90;;;;;;20900117;28;20095;-78
2022/02/14 02:13:00;;;;;;;11.60;6.10;;;0.60;99.90;;;;;;20905833;28;20037;-78
2022/02/14 02:23:01;;;;;;;19.75;7.82;;;0.50;99.90;;;;;;20902119;28;20043;-77
2022/02/14 02:33:02;;;;;;;15.60;6.93;;;-0.10;99.90;;;;;;20900142;28;20112;-77
2022/02/14 02:43:03;;;;;;;16.75;5.32;;;0.30;99.90;;;;;;20881073;28;20402;-77
2022/02/14 02:53:04;;;;;;;12.23;5.38;;;0.60;99.90;;;;;;20897311;28;20126;-76
2022/02/14 03:03:04;;;;;;;16.10;6.00;;;0.60;99.90;;;;;;20897300;28;20040;-77
2022/02/14 03:13:07;;;;;;;11.20;6.63;;;0.30;99.90;;;;;;20950985;28;20032;-77
2022/02/14 03:23:08;;;;;;;16.50;6.75;;;0.20;99.90;;;;;;20971072;28;20080;-77
2022/02/14 03:33:09;;;;;;;15.23;7.22;;;0.10;99.90;;;;;;20939993;28;20029;-77
2022/02/14 03:43:10;;;;;;;21.17;6.78;;;0.00;99.90;;;;;;20917931;28;20107;-77
2022/02/14 03:53:11;;;;;;;15.68;5.32;;;0.00;99.90;;;;;;20929570;28;20037;-77
2022/02/14 04:03:12;;;;;;;11.65;6.00;;;0.20;99.90;;;;;;20965276;28;20107;-77
2022/02/14 04:13:13;;;;;;;9.75;5.22;;;0.30;99.90;;;;;;21009494;28;20078;-78
2022/02/14 04:23:14;;;;;;;14.25;6.70;;;0.40;99.90;;;;;;21012253;28;20036;-78
2022/02/14 04:33:15;;;;;;;10.52;6.15;;;0.50;99.90;;;;;;21008659;28;20036;-77
2022/02/14 04:43:16;;;;;;;19.27;7.30;;;0.60;99.90;;;;;;21001399;28;20033;-75
2022/02/14 04:53:17;;;;;;;11.73;7.35;;;0.60;99.90;;;;;;20999986;28;20139;-75
2022/02/14 05:03:18;;;;;;;11.82;6.15;;;0.50;99.90;;;;;;20999133;28;20024;-75
2022/02/14 05:13:18;;;;;;;12.15;6.07;;;0.50;99.90;;;;;;21000594;28;20101;-78
2022/02/14 05:23:19;;;;;;;13.02;6.22;;;0.40;99.90;;;;;;21010857;28;20025;-77
2022/02/14 05:33:20;;;;;;;12.82;6.25;;;0.30;99.90;;;;;;21011921;28;20039;-78
2022/02/14 05:43:21;;;;;;;13.15;6.70;;;0.40;99.90;;;;;;21012413;28;20028;-78
2022/02/14 05:53:21;;;;;;;12.45;5.90;;;0.30;99.90;;;;;;20993716;28;20040;-78
2022/02/14 06:03:22;;;;;;;7.70;4.70;;;0.30;99.90;;;;;;21009818;28;20552;-78
2022/02/14 06:13:23;;;;;;;10.40;5.30;;;0.50;99.90;;;;;;21008212;28;20036;-78
2022/02/14 06:23:24;;;;;;;12.25;4.38;;;0.70;99.90;;;;;;21008473;28;20031;-78
2022/02/14 06:33:25;;;;;;;13.05;6.50;;;0.90;99.90;;;;;;20917979;28;20130;-78
2022/02/14 06:43:25;;;;;;;14.52;6.78;;;0.80;99.90;;;;;;20915650;28;20037;-78
2022/02/14 06:53:27;;;;;;;19.55;8.57;;;0.60;99.90;;;;;;20874780;28;20045;-78
2022/02/14 07:03:29;;;;;;;24.45;8.23;;;0.70;99.90;;;;;;20870212;28;20530;-78
2022/02/14 07:13:30;;;;;;;18.13;9.13;;;0.70;99.90;;;;;;20920275;28;20190;-78
2022/02/14 07:23:31;;;;;;;16.88;9.07;;;0.40;99.90;;;;;;20919111;28;20040;-78
2022/02/14 07:33:33;;;;;;;18.00;9.45;;;0.30;99.90;;;;;;20841086;28;20037;-78
2022/02/14 07:43:34;;;;;;;15.52;8.43;;;0.40;99.90;;;;;;20837811;28;20083;-78
2022/02/14 07:53:34;;;;;;;19.52;9.43;;;0.50;99.90;;;;;;20839747;22;20049;-75
2022/02/14 08:03:35;;;;;;;16.85;7.15;;;0.60;99.90;;;;;;20759434;28;20040;-76
2022/02/14 08:13:36;;;;;;;14.13;7.22;;;0.80;99.90;;;;;;20733233;28;20034;-76
2022/02/14 08:23:37;;;;;;;13.43;7.72;;;1.00;99.90;;;;;;20733996;28;20041;-75
2022/02/14 08:33:38;;;;;;;15.13;7.43;;;1.00;99.90;;;;;;20749336;28;20427;-76
2022/02/14 08:43:39;;;;;;;14.00;7.88;;;0.90;99.90;;;;;;20731512;28;20511;-76
2022/02/14 08:53:40;;;;;;;16.10;7.60;;;0.90;99.90;;;;;;20741732;28;20042;-75
2022/02/14 09:03:41;;;;;;;14.13;7.22;;;0.90;99.90;;;;;;20729834;28;20046;-76
2022/02/14 09:13:42;;;;;;;12.60;6.45;;;0.90;99.90;;;;;;20730594;28;20510;-76
2022/02/14 09:23:43;;;;;;;16.65;8.40;;;1.10;99.90;;;;;;20730635;28;20040;-76
2022/02/14 09:33:44;;;;;;;17.08;8.38;;;1.20;99.90;;;;;;20729593;28;20137;-76
2022/02/14 09:43:47;;;;;;;14.60;7.05;;;1.10;99.90;;;;;;20729790;28;20041;-76
2022/02/14 09:53:48;;;;;;;15.10;7.80;;;1.20;99.90;;;;;;20728837;28;20087;-76
2022/02/14 10:03:56;;;;;;;16.55;6.80;;;1.20;99.90;;;;;;20724946;28;20035;-76
2022/02/14 10:14:12;;;;;;;12.60;6.13;;;1.40;99.90;;;;;;20770098;28;20033;-76
2022/02/14 10:24:15;;;;;;;23.45;13.27;;;1.50;99.90;;;;;;20737721;28;20219;-76
2022/02/14 10:34:19;;;;;;;17.65;9.90;;;1.70;99.90;;;;;;20725016;28;20034;-76
2022/02/14 10:54:45;;;;;;;22.75;11.35;;;1.50;99.90;;;;;;20643114;28;20555;-76
2022/02/14 11:04:45;;;;;;;31.92;13.05;;;1.70;99.90;;;;;;20654250;28;20400;-77
2022/02/14 11:14:56;;;;;;;21.08;10.07;;;1.80;99.90;;;;;;20723619;28;20041;-75
2022/02/14 11:25:09;;;;;;;25.05;11.52;;;2.20;99.90;;;;;;20723655;28;20068;-75
2022/02/14 11:35:17;;;;;;;17.17;8.88;;;2.40;99.90;;;;;;20723526;28;20543;-75
2022/02/14 11:45:18;;;;;;;15.32;7.68;;;2.50;99.90;;;;;;20736757;28;20041;-76
2022/02/14 11:55:29;;;;;;;18.60;8.77;;;2.60;99.90;;;;;;20755034;28;20038;-76
2022/02/14 12:05:46;;;;;;;21.00;10.85;;;2.90;99.90;;;;;;20764512;28;20041;-76
2022/02/14 12:25:51;;;;;;;20.05;10.43;;;3.10;99.90;;;;;;20754580;28;20121;-76
2022/02/14 12:35:57;;;;;;;16.63;8.70;;;3.20;99.90;;;;;;20754485;28;20108;-75
2022/02/14 12:46:01;;;;;;;23.60;12.30;;;3.40;99.90;;;;;;20752351;28;20030;-76
2022/02/14 12:56:35;;;;;;;16.67;9.77;;;3.70;99.90;;;;;;20752111;28;20022;-75
2022/02/14 13:06:41;;;;;;;17.88;9.02;;;3.70;99.90;;;;;;20761627;28;20046;-78
2022/02/14 13:16:50;;;;;;;13.85;7.53;;;3.50;99.90;;;;;;20750998;28;20072;-77
2022/02/14 13:27:03;;;;;;;25.15;10.20;;;3.90;99.90;;;;;;20753095;28;20125;-77
2022/02/14 13:37:10;;;;;;;30.42;13.32;;;4.20;99.90;;;;;;20769117;28;20038;-77
2022/02/14 13:47:19;;;;;;;20.88;10.73;;;4.10;99.90;;;;;;20741808;28;20034;-79
2022/02/14 13:57:23;;;;;;;16.05;9.02;;;4.30;99.90;;;;;;20772517;28;20080;-79
2022/02/14 14:07:24;;;;;;;18.45;9.32;;;4.70;99.90;;;;;;20782125;28;20041;-76
2022/02/14 14:17:27;;;;;;;12.10;7.37;;;4.90;99.90;;;;;;20784505;28;20033;-78
2022/02/14 14:27:29;;;;;;;12.32;6.63;;;5.10;99.90;;;;;;20778573;28;20539;-79
2022/02/14 14:37:30;;;;;;;12.10;6.68;;;5.10;99.90;;;;;;20783798;28;20037;-77
2022/02/14 14:47:32;;;;;;;16.15;8.05;;;5.30;99.90;;;;;;20783033;28;20052;-78
2022/02/14 14:57:34;;;;;;;26.92;12.18;;;5.40;99.90;;;;;;20782707;28;20054;-78
2022/02/14 15:07:35;;;;;;;24.17;13.52;;;5.30;99.90;;;;;;20790316;28;20026;-79
2022/02/14 15:17:37;;;;;;;21.58;10.65;;;5.10;99.90;;;;;;20767114;28;20029;-77
2022/02/14 15:27:39;;;;;;;18.02;10.60;;;4.90;99.90;;;;;;20774194;28;20037;-78
2022/02/14 15:37:40;;;;;;;27.17;13.82;;;4.80;99.90;;;;;;20772734;28;20030;-77
2022/02/14 15:47:41;;;;;;;19.40;10.18;;;4.70;99.90;;;;;;20759465;28;20034;-76
2022/02/14 15:57:42;;;;;;;33.00;15.93;;;4.70;99.90;;;;;;20758461;28;20038;-77
2022/02/14 16:07:43;;;;;;;24.58;12.95;;;4.70;99.90;;;;;;20753822;28;20453;-76
2022/02/14 16:17:46;;;;;;;29.13;11.95;;;4.80;99.90;;;;;;20750331;28;20022;-78
2022/02/14 16:27:52;;;;;;;19.30;10.07;;;4.80;99.90;;;;;;20767345;28;20048;-76
2022/02/14 16:37:53;;;;;;;22.75;10.45;;;4.90;99.90;;;;;;20772183;28;20045;-77
2022/02/14 16:47:54;;;;;;;21.15;11.45;;;4.90;99.90;;;;;;20775511;28;20112;-76
2022/02/14 16:57:54;;;;;;;22.65;11.07;;;4.90;99.90;;;;;;20771289;28;20041;-77
2022/02/14 17:07:57;;;;;;;48.20;23.25;;;4.90;99.90;;;;;;20769922;28;20116;-76
2022/02/14 17:17:57;;;;;;;30.98;16.85;;;4.80;99.90;;;;;;20766904;28;20034;-76
2022/02/14 17:27:59;;;;;;;41.13;21.23;;;4.70;99.90;;;;;;20767826;28;20044;-76
2022/02/14 17:38:00;;;;;;;24.10;11.85;;;4.70;99.90;;;;;;20758382;28;20026;-76
2022/02/14 17:48:01;;;;;;;31.60;16.25;;;4.80;99.90;;;;;;20750321;28;20077;-76
2022/02/14 17:58:02;;;;;;;24.77;12.10;;;4.70;99.90;;;;;;20751638;28;20026;-76
2022/02/14 18:08:03;;;;;;;32.63;16.50;;;4.70;99.90;;;;;;20751993;28;20026;-75
2022/02/14 18:18:05;;;;;;;45.85;20.95;;;4.80;99.90;;;;;;20754295;28;20034;-73
2022/02/14 18:28:06;;;;;;;29.95;14.07;;;4.90;99.90;;;;;;20737343;28;20038;-74
2022/02/14 18:38:07;;;;;;;33.92;18.15;;;4.80;99.90;;;;;;20738183;28;20030;-73
2022/02/14 18:48:08;;;;;;;27.13;13.35;;;4.80;99.90;;;;;;20744000;28;20091;-75
2022/02/14 18:58:09;;;;;;;25.77;13.35;;;4.70;99.90;;;;;;20750455;28;20045;-76
2022/02/14 19:08:12;;;;;;;28.15;14.07;;;4.70;99.90;;;;;;20749957;28;20099;-76
2022/02/14 19:18:12;;;;;;;34.67;15.63;;;4.30;99.90;;;;;;20762249;28;20080;-75
2022/02/14 19:28:13;;;;;;;;;;;4.10;99.90;;;;;;20774802;28;20038;-77
2022/02/14 19:38:14;;;;;;;23.13;12.50;;;3.90;99.90;;;;;;20766931;28;20024;-78
2022/02/14 19:48:15;;;;;;;32.08;15.35;;;3.30;99.90;;;;;;20804869;23;20056;-76
2022/02/14 19:58:16;;;;;;;37.08;18.02;;;3.50;99.90;;;;;;20912075;28;20108;-77
2022/02/14 20:08:19;;;;;;;35.25;16.10;;;3.50;99.90;;;;;;20922826;28;20116;-76
2022/02/14 20:18:20;;;;;;;28.15;14.90;;;3.60;99.90;;;;;;20936138;28;20095;-76
2022/02/14 20:28:21;;;;;;;;;;;3.80;99.90;;;;;;20920606;28;20039;-77
2022/02/14 20:38:22;;;;;;;24.53;13.40;;;3.80;99.90;;;;;;20914008;28;19913;-76
2022/02/14 20:48:23;;;;;;;35.03;18.98;;;3.70;99.90;;;;;;20874296;28;20280;-76
2022/02/14 20:58:24;;;;;;;;;;;3.90;99.90;;;;;;20870251;28;20491;-76
2022/02/14 21:08:24;;;;;;;43.97;19.17;;;3.80;99.90;;;;;;20854692;28;19916;-77
2022/02/14 21:18:25;;;;;;;41.08;18.10;;;3.90;99.90;;;;;;20915178;28;20665;-76
2022/02/14 21:28:26;;;;;;;;;;;3.80;99.90;;;;;;20914693;28;20395;-76
2022/02/14 21:38:26;;;;;;;30.20;15.90;;;3.80;99.90;;;;;;20913278;28;19912;-76
2022/02/14 21:48:27;;;;;;;;;;;3.80;99.90;;;;;;20914081;28;20371;-76
2022/02/14 21:58:28;;;;;;;34.60;15.15;;;3.70;99.90;;;;;;20942502;28;19912;-78
2022/02/14 22:08:29;;;;;;;;;;;3.60;99.90;;;;;;20900084;28;20036;-77
2022/02/14 22:18:30;;;;;;;24.20;10.50;;;3.30;99.90;;;;;;20861412;28;20000;-76
2022/02/14 22:28:31;;;;;;;17.05;9.00;;;3.20;99.90;;;;;;20889617;28;20036;-76
2022/02/14 22:38:32;;;;;;;14.52;7.53;;;2.90;99.90;;;;;;20874073;28;20087;-76
2022/02/14 22:48:32;;;;;;;14.38;6.75;;;2.80;99.90;;;;;;20879094;28;20055;-77
2022/02/14 22:58:33;;;;;;;17.73;7.72;;;2.90;99.90;;;;;;20865696;28;20365;-77
2022/02/14 23:18:56;;;;;;;14.55;7.65;;;3.20;99.90;;;;;;20838892;28;20474;-77
2022/02/14 23:28:58;;;;;;;15.55;7.35;;;3.10;99.90;;;;;;20843766;28;20107;-77
2022/02/14 23:38:59;;;;;;;21.67;9.80;;;3.20;99.90;;;;;;20925796;28;20028;-77
2022/02/14 23:49:00;;;;;;;19.40;9.75;;;3.10;99.90;;;;;;20938685;28;20029;-77
2022/02/14 23:59:01;;;;;;;;;;;3.20;99.90;;;;;;20937125;28;20093;-77
